sensor_id;sensor_type;location;lat;lon;timestamp;P1;durP1;ratioP1;P2;durP2;ratioP2
52918;SDS011;38793;52.690;6.812;2024-02-23T00:02:03;0.20;;;0.10;;
52918;SDS011;38793;52.690;6.812;2024-02-23T00:04:29;3.63;;;0.13;;
52918;SDS011;38793;52.690;6.812;2024-02-23T00:06:54;1.67;;;0.20;;
52918;SDS011;38793;52.690;6.812;2024-02-23T00:09:20;0.93;;;0.10;;
52918;SDS011;38793;52.690;6.812;2024-02-23T00:11:46;1.80;;;0.20;;
52918;SDS011;38793;52.690;6.812;2024-02-23T00:16:41;0.82;;;0.10;;
52918;SDS011;38793;52.690;6.812;2024-02-23T00:19:09;1.48;;;0.30;;
52918;SDS011;38793;52.690;6.812;2024-02-23T00:21:36;3.25;;;0.10;;
52918;SDS011;38793;52.690;6.812;2024-02-23T00:24:02;2.08;;;0.20;;
52918;SDS011;38793;52.690;6.812;2024-02-23T00:26:28;4.38;;;0.10;;
52918;SDS011;38793;52.690;6.812;2024-02-23T00:28:54;1.38;;;0.20;;
52918;SDS011;38793;52.690;6.812;2024-02-23T00:31:20;0.30;;;0.22;;
52918;SDS011;38793;52.690;6.812;2024-02-23T00:33:46;0.83;;;0.20;;
52918;SDS011;38793;52.690;6.812;2024-02-23T00:36:11;1.13;;;0.20;;
52918;SDS011;38793;52.690;6.812;2024-02-23T00:38:37;1.02;;;0.20;;
52918;SDS011;38793;52.690;6.812;2024-02-23T00:41:03;0.27;;;0.20;;
52918;SDS011;38793;52.690;6.812;2024-02-23T00:43:28;1.30;;;0.20;;
52918;SDS011;38793;52.690;6.812;2024-02-23T00:45:54;0.57;;;0.20;;
52918;SDS011;38793;52.690;6.812;2024-02-23T00:48:20;3.42;;;0.20;;
52918;SDS011;38793;52.690;6.812;2024-02-23T00:50:46;2.33;;;0.23;;
52918;SDS011;38793;52.690;6.812;2024-02-23T00:53:11;0.52;;;0.20;;
52918;SDS011;38793;52.690;6.812;2024-02-23T00:55:37;0.33;;;0.33;;
52918;SDS011;38793;52.690;6.812;2024-02-23T00:58:02;0.13;;;0.13;;
52918;SDS011;38793;52.690;6.812;2024-02-23T01:00:28;0.43;;;0.20;;
52918;SDS011;38793;52.690;6.812;2024-02-23T01:02:54;0.60;;;0.20;;
52918;SDS011;38793;52.690;6.812;2024-02-23T01:05:20;0.30;;;0.10;;
52918;SDS011;38793;52.690;6.812;2024-02-23T01:07:45;0.10;;;0.10;;
52918;SDS011;38793;52.690;6.812;2024-02-23T01:10:11;0.50;;;0.23;;
52918;SDS011;38793;52.690;6.812;2024-02-23T01:12:37;1.93;;;0.20;;
52918;SDS011;38793;52.690;6.812;2024-02-23T01:15:02;0.20;;;0.17;;
52918;SDS011;38793;52.690;6.812;2024-02-23T01:17:28;0.57;;;0.10;;
52918;SDS011;38793;52.690;6.812;2024-02-23T01:19:54;0.30;;;0.20;;
52918;SDS011;38793;52.690;6.812;2024-02-23T01:22:19;0.43;;;0.20;;
52918;SDS011;38793;52.690;6.812;2024-02-23T01:24:45;1.10;;;0.20;;
52918;SDS011;38793;52.690;6.812;2024-02-23T01:27:10;0.73;;;0.20;;
52918;SDS011;38793;52.690;6.812;2024-02-23T01:29:36;3.00;;;1.03;;
52918;SDS011;38793;52.690;6.812;2024-02-23T01:32:02;2.70;;;0.77;;
52918;SDS011;38793;52.690;6.812;2024-02-23T01:34:28;3.90;;;0.30;;
52918;SDS011;38793;52.690;6.812;2024-02-23T01:36:53;2.33;;;0.40;;
52918;SDS011;38793;52.690;6.812;2024-02-23T01:39:19;4.68;;;0.32;;
52918;SDS011;38793;52.690;6.812;2024-02-23T01:41:45;2.50;;;0.30;;
52918;SDS011;38793;52.690;6.812;2024-02-23T01:44:11;4.40;;;0.40;;
52918;SDS011;38793;52.690;6.812;2024-02-23T01:46:36;3.03;;;0.57;;
52918;SDS011;38793;52.690;6.812;2024-02-23T01:49:02;7.55;;;0.50;;
52918;SDS011;38793;52.690;6.812;2024-02-23T01:51:30;5.07;;;0.60;;
52918;SDS011;38793;52.690;6.812;2024-02-23T01:56:22;2.88;;;0.40;;
52918;SDS011;38793;52.690;6.812;2024-02-23T01:58:47;3.80;;;0.63;;
52918;SDS011;38793;52.690;6.812;2024-02-23T02:01:14;8.27;;;0.43;;
52918;SDS011;38793;52.690;6.812;2024-02-23T02:03:39;3.20;;;0.60;;
52918;SDS011;38793;52.690;6.812;2024-02-23T02:06:05;4.45;;;0.43;;
52918;SDS011;38793;52.690;6.812;2024-02-23T02:08:33;3.55;;;0.60;;
52918;SDS011;38793;52.690;6.812;2024-02-23T02:10:59;8.27;;;0.73;;
52918;SDS011;38793;52.690;6.812;2024-02-23T02:13:25;3.70;;;0.93;;
52918;SDS011;38793;52.690;6.812;2024-02-23T02:15:50;5.33;;;1.20;;
52918;SDS011;38793;52.690;6.812;2024-02-23T02:18:16;14.23;;;2.17;;
52918;SDS011;38793;52.690;6.812;2024-02-23T02:20:50;7.57;;;1.17;;
52918;SDS011;38793;52.690;6.812;2024-02-23T02:23:17;6.55;;;1.05;;
52918;SDS011;38793;52.690;6.812;2024-02-23T02:25:43;10.80;;;2.33;;
52918;SDS011;38793;52.690;6.812;2024-02-23T02:28:09;11.50;;;1.33;;
52918;SDS011;38793;52.690;6.812;2024-02-23T02:30:34;8.07;;;1.27;;
52918;SDS011;38793;52.690;6.812;2024-02-23T02:33:00;7.93;;;1.97;;
52918;SDS011;38793;52.690;6.812;2024-02-23T02:35:26;5.63;;;1.50;;
52918;SDS011;38793;52.690;6.812;2024-02-23T02:37:51;5.70;;;1.80;;
52918;SDS011;38793;52.690;6.812;2024-02-23T02:40:17;12.40;;;1.80;;
52918;SDS011;38793;52.690;6.812;2024-02-23T02:42:42;7.27;;;1.93;;
52918;SDS011;38793;52.690;6.812;2024-02-23T02:47:34;8.45;;;0.93;;
52918;SDS011;38793;52.690;6.812;2024-02-23T02:52:27;7.75;;;1.38;;
52918;SDS011;38793;52.690;6.812;2024-02-23T02:54:53;3.83;;;1.08;;
52918;SDS011;38793;52.690;6.812;2024-02-23T02:57:19;3.77;;;0.80;;
52918;SDS011;38793;52.690;6.812;2024-02-23T02:59:44;5.20;;;0.80;;
52918;SDS011;38793;52.690;6.812;2024-02-23T03:02:11;4.35;;;0.60;;
52918;SDS011;38793;52.690;6.812;2024-02-23T03:04:36;3.80;;;0.82;;
52918;SDS011;38793;52.690;6.812;2024-02-23T03:07:02;3.97;;;0.43;;
52918;SDS011;38793;52.690;6.812;2024-02-23T03:09:28;6.43;;;1.10;;
52918;SDS011;38793;52.690;6.812;2024-02-23T03:11:53;4.73;;;0.57;;
52918;SDS011;38793;52.690;6.812;2024-02-23T03:14:19;5.23;;;0.47;;
52918;SDS011;38793;52.690;6.812;2024-02-23T03:16:45;4.25;;;0.60;;
52918;SDS011;38793;52.690;6.812;2024-02-23T03:19:12;3.95;;;1.20;;
52918;SDS011;38793;52.690;6.812;2024-02-23T03:21:38;1.90;;;0.50;;
52918;SDS011;38793;52.690;6.812;2024-02-23T03:24:04;3.97;;;0.53;;
52918;SDS011;38793;52.690;6.812;2024-02-23T03:26:29;3.30;;;0.50;;
52918;SDS011;38793;52.690;6.812;2024-02-23T03:28:55;3.67;;;0.47;;
52918;SDS011;38793;52.690;6.812;2024-02-23T03:31:20;4.57;;;0.50;;
52918;SDS011;38793;52.690;6.812;2024-02-23T03:33:46;4.90;;;1.03;;
52918;SDS011;38793;52.690;6.812;2024-02-23T03:36:12;2.97;;;0.50;;
52918;SDS011;38793;52.690;6.812;2024-02-23T03:38:37;2.47;;;0.33;;
52918;SDS011;38793;52.690;6.812;2024-02-23T03:41:03;3.57;;;0.40;;
52918;SDS011;38793;52.690;6.812;2024-02-23T03:43:29;6.70;;;0.65;;
52918;SDS011;38793;52.690;6.812;2024-02-23T03:45:54;3.93;;;0.70;;
52918;SDS011;38793;52.690;6.812;2024-02-23T03:48:20;3.57;;;0.70;;
52918;SDS011;38793;52.690;6.812;2024-02-23T03:50:46;3.57;;;0.93;;
52918;SDS011;38793;52.690;6.812;2024-02-23T03:53:11;6.43;;;1.73;;
52918;SDS011;38793;52.690;6.812;2024-02-23T03:55:37;2.13;;;0.70;;
52918;SDS011;38793;52.690;6.812;2024-02-23T03:58:03;4.60;;;0.83;;
52918;SDS011;38793;52.690;6.812;2024-02-23T04:00:28;2.55;;;0.77;;
52918;SDS011;38793;52.690;6.812;2024-02-23T04:02:54;3.70;;;1.30;;
52918;SDS011;38793;52.690;6.812;2024-02-23T04:05:19;4.43;;;1.17;;
52918;SDS011;38793;52.690;6.812;2024-02-23T04:07:45;3.07;;;1.20;;
52918;SDS011;38793;52.690;6.812;2024-02-23T04:10:11;7.07;;;1.30;;
52918;SDS011;38793;52.690;6.812;2024-02-23T04:12:41;9.45;;;2.42;;
52918;SDS011;38793;52.690;6.812;2024-02-23T04:15:08;3.92;;;0.95;;
52918;SDS011;38793;52.690;6.812;2024-02-23T04:17:33;6.10;;;0.70;;
52918;SDS011;38793;52.690;6.812;2024-02-23T04:20:00;5.90;;;0.67;;
52918;SDS011;38793;52.690;6.812;2024-02-23T04:22:30;8.13;;;1.00;;
52918;SDS011;38793;52.690;6.812;2024-02-23T04:24:55;2.90;;;0.60;;
52918;SDS011;38793;52.690;6.812;2024-02-23T04:27:21;4.70;;;1.03;;
52918;SDS011;38793;52.690;6.812;2024-02-23T04:29:46;6.73;;;2.10;;
52918;SDS011;38793;52.690;6.812;2024-02-23T04:32:12;6.37;;;2.07;;
52918;SDS011;38793;52.690;6.812;2024-02-23T04:34:38;10.07;;;2.37;;
52918;SDS011;38793;52.690;6.812;2024-02-23T04:37:05;9.55;;;2.85;;
52918;SDS011;38793;52.690;6.812;2024-02-23T04:39:31;6.77;;;2.37;;
52918;SDS011;38793;52.690;6.812;2024-02-23T04:41:56;5.70;;;3.07;;
52918;SDS011;38793;52.690;6.812;2024-02-23T04:44:22;8.70;;;4.20;;
52918;SDS011;38793;52.690;6.812;2024-02-23T04:46:48;7.57;;;4.22;;
52918;SDS011;38793;52.690;6.812;2024-02-23T04:49:13;11.93;;;4.17;;
52918;SDS011;38793;52.690;6.812;2024-02-23T04:51:39;9.80;;;4.10;;
52918;SDS011;38793;52.690;6.812;2024-02-23T04:54:05;7.50;;;3.57;;
52918;SDS011;38793;52.690;6.812;2024-02-23T04:56:31;8.27;;;3.55;;
52918;SDS011;38793;52.690;6.812;2024-02-23T04:58:58;9.15;;;3.50;;
52918;SDS011;38793;52.690;6.812;2024-02-23T05:01:24;7.90;;;3.63;;
52918;SDS011;38793;52.690;6.812;2024-02-23T05:03:49;10.40;;;4.13;;
52918;SDS011;38793;52.690;6.812;2024-02-23T05:06:15;12.57;;;3.70;;
52918;SDS011;38793;52.690;6.812;2024-02-23T05:08:40;7.23;;;2.97;;
52918;SDS011;38793;52.690;6.812;2024-02-23T05:11:06;10.88;;;2.95;;
52918;SDS011;38793;52.690;6.812;2024-02-23T05:13:32;7.70;;;3.17;;
52918;SDS011;38793;52.690;6.812;2024-02-23T05:15:57;7.97;;;2.33;;
52918;SDS011;38793;52.690;6.812;2024-02-23T05:18:23;9.03;;;3.57;;
52918;SDS011;38793;52.690;6.812;2024-02-23T05:20:49;6.77;;;3.30;;
52918;SDS011;38793;52.690;6.812;2024-02-23T05:23:14;9.03;;;2.57;;
52918;SDS011;38793;52.690;6.812;2024-02-23T05:25:41;8.43;;;3.25;;
52918;SDS011;38793;52.690;6.812;2024-02-23T05:28:07;10.80;;;3.88;;
52918;SDS011;38793;52.690;6.812;2024-02-23T05:30:32;5.07;;;2.27;;
52918;SDS011;38793;52.690;6.812;2024-02-23T05:32:58;6.90;;;3.47;;
52918;SDS011;38793;52.690;6.812;2024-02-23T05:35:26;13.50;;;2.93;;
52918;SDS011;38793;52.690;6.812;2024-02-23T05:37:52;6.20;;;2.83;;
52918;SDS011;38793;52.690;6.812;2024-02-23T05:40:18;9.73;;;2.57;;
52918;SDS011;38793;52.690;6.812;2024-02-23T05:42:43;8.73;;;3.03;;
52918;SDS011;38793;52.690;6.812;2024-02-23T05:45:09;11.37;;;4.27;;
52918;SDS011;38793;52.690;6.812;2024-02-23T05:47:36;14.50;;;4.22;;
52918;SDS011;38793;52.690;6.812;2024-02-23T05:50:02;8.45;;;2.85;;
52918;SDS011;38793;52.690;6.812;2024-02-23T05:52:29;9.65;;;3.05;;
52918;SDS011;38793;52.690;6.812;2024-02-23T05:54:58;11.02;;;3.42;;
52918;SDS011;38793;52.690;6.812;2024-02-23T05:57:25;12.02;;;2.83;;
52918;SDS011;38793;52.690;6.812;2024-02-23T05:59:54;11.65;;;3.78;;
52918;SDS011;38793;52.690;6.812;2024-02-23T06:02:24;8.38;;;3.38;;
52918;SDS011;38793;52.690;6.812;2024-02-23T06:07:15;12.77;;;3.05;;
52918;SDS011;38793;52.690;6.812;2024-02-23T06:09:41;10.63;;;3.63;;
52918;SDS011;38793;52.690;6.812;2024-02-23T06:12:07;11.77;;;3.55;;
52918;SDS011;38793;52.690;6.812;2024-02-23T06:14:33;9.57;;;3.13;;
52918;SDS011;38793;52.690;6.812;2024-02-23T06:16:59;9.70;;;3.55;;
52918;SDS011;38793;52.690;6.812;2024-02-23T06:19:25;11.98;;;3.45;;
52918;SDS011;38793;52.690;6.812;2024-02-23T06:21:50;7.13;;;3.10;;
52918;SDS011;38793;52.690;6.812;2024-02-23T06:24:16;12.85;;;3.08;;
52918;SDS011;38793;52.690;6.812;2024-02-23T06:26:42;5.80;;;3.20;;
52918;SDS011;38793;52.690;6.812;2024-02-23T06:29:08;8.02;;;3.75;;
52918;SDS011;38793;52.690;6.812;2024-02-23T06:31:39;5.85;;;1.95;;
52918;SDS011;38793;52.690;6.812;2024-02-23T06:34:05;12.00;;;2.97;;
52918;SDS011;38793;52.690;6.812;2024-02-23T06:36:31;11.85;;;2.60;;
52918;SDS011;38793;52.690;6.812;2024-02-23T06:38:56;8.00;;;2.90;;
52918;SDS011;38793;52.690;6.812;2024-02-23T06:41:22;7.93;;;2.87;;
52918;SDS011;38793;52.690;6.812;2024-02-23T06:43:48;10.00;;;2.65;;
52918;SDS011;38793;52.690;6.812;2024-02-23T06:46:13;7.33;;;2.27;;
52918;SDS011;38793;52.690;6.812;2024-02-23T06:48:39;6.53;;;2.50;;
52918;SDS011;38793;52.690;6.812;2024-02-23T06:51:05;6.40;;;2.78;;
52918;SDS011;38793;52.690;6.812;2024-02-23T06:53:34;9.68;;;1.77;;
52918;SDS011;38793;52.690;6.812;2024-02-23T06:56:03;9.77;;;1.95;;
52918;SDS011;38793;52.690;6.812;2024-02-23T06:58:29;6.40;;;1.60;;
52918;SDS011;38793;52.690;6.812;2024-02-23T07:00:54;9.27;;;2.03;;
52918;SDS011;38793;52.690;6.812;2024-02-23T07:03:20;12.77;;;1.70;;
52918;SDS011;38793;52.690;6.812;2024-02-23T07:05:46;6.07;;;1.50;;
52918;SDS011;38793;52.690;6.812;2024-02-23T07:08:12;9.45;;;1.38;;
52918;SDS011;38793;52.690;6.812;2024-02-23T07:10:38;9.85;;;1.75;;
52918;SDS011;38793;52.690;6.812;2024-02-23T07:13:05;7.25;;;1.52;;
52918;SDS011;38793;52.690;6.812;2024-02-23T07:15:31;7.90;;;1.60;;
52918;SDS011;38793;52.690;6.812;2024-02-23T07:17:57;6.93;;;1.27;;
52918;SDS011;38793;52.690;6.812;2024-02-23T07:20:23;9.65;;;1.30;;
52918;SDS011;38793;52.690;6.812;2024-02-23T07:22:49;4.73;;;1.93;;
52918;SDS011;38793;52.690;6.812;2024-02-23T07:25:18;8.18;;;1.20;;
52918;SDS011;38793;52.690;6.812;2024-02-23T07:27:45;15.25;;;2.58;;
52918;SDS011;38793;52.690;6.812;2024-02-23T07:30:11;2.60;;;1.33;;
52918;SDS011;38793;52.690;6.812;2024-02-23T07:32:37;8.45;;;1.58;;
52918;SDS011;38793;52.690;6.812;2024-02-23T07:35:03;5.10;;;1.50;;
52918;SDS011;38793;52.690;6.812;2024-02-23T07:37:29;5.50;;;1.42;;
52918;SDS011;38793;52.690;6.812;2024-02-23T07:39:55;5.88;;;1.20;;
52918;SDS011;38793;52.690;6.812;2024-02-23T07:42:21;6.73;;;1.60;;
52918;SDS011;38793;52.690;6.812;2024-02-23T07:44:46;6.22;;;1.20;;
52918;SDS011;38793;52.690;6.812;2024-02-23T07:47:12;7.60;;;1.60;;
52918;SDS011;38793;52.690;6.812;2024-02-23T07:49:38;3.80;;;0.70;;
52918;SDS011;38793;52.690;6.812;2024-02-23T07:52:06;4.25;;;1.05;;
52918;SDS011;38793;52.690;6.812;2024-02-23T07:54:32;9.18;;;0.90;;
52918;SDS011;38793;52.690;6.812;2024-02-23T07:56:57;10.57;;;1.77;;
52918;SDS011;38793;52.690;6.812;2024-02-23T07:59:24;3.50;;;0.77;;
52918;SDS011;38793;52.690;6.812;2024-02-23T08:01:49;2.45;;;0.80;;
52918;SDS011;38793;52.690;6.812;2024-02-23T08:04:15;4.17;;;0.57;;
52918;SDS011;38793;52.690;6.812;2024-02-23T08:06:41;5.30;;;1.13;;
52918;SDS011;38793;52.690;6.812;2024-02-23T08:11:33;2.47;;;0.70;;
52918;SDS011;38793;52.690;6.812;2024-02-23T08:13:59;3.43;;;0.70;;
52918;SDS011;38793;52.690;6.812;2024-02-23T08:16:24;6.07;;;0.80;;
52918;SDS011;38793;52.690;6.812;2024-02-23T08:18:50;7.40;;;1.05;;
52918;SDS011;38793;52.690;6.812;2024-02-23T08:21:16;3.87;;;0.90;;
52918;SDS011;38793;52.690;6.812;2024-02-23T08:23:42;3.87;;;0.80;;
52918;SDS011;38793;52.690;6.812;2024-02-23T08:26:07;9.60;;;0.93;;
52918;SDS011;38793;52.690;6.812;2024-02-23T08:28:35;9.20;;;0.70;;
52918;SDS011;38793;52.690;6.812;2024-02-23T08:31:00;12.03;;;1.90;;
52918;SDS011;38793;52.690;6.812;2024-02-23T08:33:26;7.37;;;0.73;;
52918;SDS011;38793;52.690;6.812;2024-02-23T08:35:52;7.13;;;0.60;;
52918;SDS011;38793;52.690;6.812;2024-02-23T08:38:17;3.30;;;0.67;;
52918;SDS011;38793;52.690;6.812;2024-02-23T08:40:43;3.78;;;0.55;;
52918;SDS011;38793;52.690;6.812;2024-02-23T08:43:10;7.05;;;0.50;;
52918;SDS011;38793;52.690;6.812;2024-02-23T08:45:36;1.67;;;0.32;;
52918;SDS011;38793;52.690;6.812;2024-02-23T08:48:01;6.73;;;0.93;;
52918;SDS011;38793;52.690;6.812;2024-02-23T08:50:28;3.25;;;0.60;;
52918;SDS011;38793;52.690;6.812;2024-02-23T08:52:54;4.22;;;0.65;;
52918;SDS011;38793;52.690;6.812;2024-02-23T08:55:20;10.85;;;1.13;;
52918;SDS011;38793;52.690;6.812;2024-02-23T08:57:47;9.43;;;1.25;;
52918;SDS011;38793;52.690;6.812;2024-02-23T09:00:13;4.97;;;0.63;;
52918;SDS011;38793;52.690;6.812;2024-02-23T09:02:39;8.27;;;0.88;;
52918;SDS011;38793;52.690;6.812;2024-02-23T09:05:07;3.33;;;0.93;;
52918;SDS011;38793;52.690;6.812;2024-02-23T09:07:33;6.32;;;0.82;;
52918;SDS011;38793;52.690;6.812;2024-02-23T09:09:59;2.72;;;0.65;;
52918;SDS011;38793;52.690;6.812;2024-02-23T09:12:25;6.22;;;1.35;;
52918;SDS011;38793;52.690;6.812;2024-02-23T09:14:51;6.22;;;0.43;;
52918;SDS011;38793;52.690;6.812;2024-02-23T09:17:16;2.67;;;0.55;;
52918;SDS011;38793;52.690;6.812;2024-02-23T09:19:44;7.65;;;0.85;;
52918;SDS011;38793;52.690;6.812;2024-02-23T09:22:10;7.78;;;0.80;;
52918;SDS011;38793;52.690;6.812;2024-02-23T09:24:39;4.20;;;0.50;;
52918;SDS011;38793;52.690;6.812;2024-02-23T09:27:05;9.43;;;0.95;;
52918;SDS011;38793;52.690;6.812;2024-02-23T09:29:32;9.95;;;1.38;;
52918;SDS011;38793;52.690;6.812;2024-02-23T09:31:57;5.72;;;1.13;;
52918;SDS011;38793;52.690;6.812;2024-02-23T09:34:23;6.93;;;0.60;;
52918;SDS011;38793;52.690;6.812;2024-02-23T09:36:50;8.02;;;1.45;;
52918;SDS011;38793;52.690;6.812;2024-02-23T09:39:15;5.70;;;0.98;;
52918;SDS011;38793;52.690;6.812;2024-02-23T09:41:41;10.05;;;1.15;;
52918;SDS011;38793;52.690;6.812;2024-02-23T09:44:07;6.65;;;2.05;;
52918;SDS011;38793;52.690;6.812;2024-02-23T09:46:34;5.53;;;1.00;;
52918;SDS011;38793;52.690;6.812;2024-02-23T09:49:02;7.40;;;1.35;;
52918;SDS011;38793;52.690;6.812;2024-02-23T09:51:28;5.50;;;0.82;;
52918;SDS011;38793;52.690;6.812;2024-02-23T09:53:55;3.25;;;0.63;;
52918;SDS011;38793;52.690;6.812;2024-02-23T09:56:22;6.68;;;0.68;;
52918;SDS011;38793;52.690;6.812;2024-02-23T09:58:52;7.18;;;0.82;;
52918;SDS011;38793;52.690;6.812;2024-02-23T10:01:25;6.53;;;1.00;;
52918;SDS011;38793;52.690;6.812;2024-02-23T10:03:57;8.23;;;1.20;;
52918;SDS011;38793;52.690;6.812;2024-02-23T10:06:24;4.28;;;0.75;;
52918;SDS011;38793;52.690;6.812;2024-02-23T10:08:50;4.57;;;0.77;;
52918;SDS011;38793;52.690;6.812;2024-02-23T10:11:22;5.57;;;0.50;;
52918;SDS011;38793;52.690;6.812;2024-02-23T10:13:49;2.13;;;0.30;;
52918;SDS011;38793;52.690;6.812;2024-02-23T10:16:15;4.63;;;0.60;;
52918;SDS011;38793;52.690;6.812;2024-02-23T10:18:41;8.23;;;1.23;;
52918;SDS011;38793;52.690;6.812;2024-02-23T10:21:07;2.90;;;0.60;;
52918;SDS011;38793;52.690;6.812;2024-02-23T10:23:33;3.25;;;0.60;;
52918;SDS011;38793;52.690;6.812;2024-02-23T10:25:58;9.45;;;0.65;;
52918;SDS011;38793;52.690;6.812;2024-02-23T10:28:24;5.73;;;0.93;;
52918;SDS011;38793;52.690;6.812;2024-02-23T10:30:50;5.37;;;0.93;;
52918;SDS011;38793;52.690;6.812;2024-02-23T10:33:15;5.18;;;0.63;;
52918;SDS011;38793;52.690;6.812;2024-02-23T10:35:47;7.53;;;0.88;;
52918;SDS011;38793;52.690;6.812;2024-02-23T10:40:41;4.15;;;1.17;;
52918;SDS011;38793;52.690;6.812;2024-02-23T10:43:11;3.45;;;0.50;;
52918;SDS011;38793;52.690;6.812;2024-02-23T10:45:41;6.13;;;0.55;;
52918;SDS011;38793;52.690;6.812;2024-02-23T10:48:08;6.53;;;0.60;;
52918;SDS011;38793;52.690;6.812;2024-02-23T10:50:35;7.05;;;0.52;;
52918;SDS011;38793;52.690;6.812;2024-02-23T10:53:02;4.22;;;0.60;;
52918;SDS011;38793;52.690;6.812;2024-02-23T10:55:29;4.35;;;0.82;;
52918;SDS011;38793;52.690;6.812;2024-02-23T10:57:57;3.35;;;0.77;;
52918;SDS011;38793;52.690;6.812;2024-02-23T11:00:24;2.85;;;0.40;;
52918;SDS011;38793;52.690;6.812;2024-02-23T11:02:51;5.82;;;0.68;;
52918;SDS011;38793;52.690;6.812;2024-02-23T11:05:19;4.35;;;0.43;;
52918;SDS011;38793;52.690;6.812;2024-02-23T11:07:48;5.80;;;0.85;;
52918;SDS011;38793;52.690;6.812;2024-02-23T11:10:15;4.50;;;0.82;;
52918;SDS011;38793;52.690;6.812;2024-02-23T11:12:41;3.22;;;0.50;;
52918;SDS011;38793;52.690;6.812;2024-02-23T11:17:35;8.52;;;1.25;;
52918;SDS011;38793;52.690;6.812;2024-02-23T11:20:05;4.40;;;0.60;;
52918;SDS011;38793;52.690;6.812;2024-02-23T11:22:34;12.02;;;1.90;;
52918;SDS011;38793;52.690;6.812;2024-02-23T11:25:00;4.55;;;0.55;;
52918;SDS011;38793;52.690;6.812;2024-02-23T11:27:32;6.50;;;0.50;;
52918;SDS011;38793;52.690;6.812;2024-02-23T11:30:05;5.20;;;0.80;;
52918;SDS011;38793;52.690;6.812;2024-02-23T11:32:37;3.50;;;1.38;;
52918;SDS011;38793;52.690;6.812;2024-02-23T11:35:08;7.25;;;0.60;;
52918;SDS011;38793;52.690;6.812;2024-02-23T11:40:24;3.58;;;0.57;;
52918;SDS011;38793;52.690;6.812;2024-02-23T11:42:50;2.75;;;0.50;;
52918;SDS011;38793;52.690;6.812;2024-02-23T11:45:16;4.35;;;0.40;;
52918;SDS011;38793;52.690;6.812;2024-02-23T11:47:42;4.60;;;0.70;;
52918;SDS011;38793;52.690;6.812;2024-02-23T11:50:10;6.13;;;0.70;;
52918;SDS011;38793;52.690;6.812;2024-02-23T11:52:37;5.65;;;1.13;;
52918;SDS011;38793;52.690;6.812;2024-02-23T11:55:03;7.88;;;0.82;;
52918;SDS011;38793;52.690;6.812;2024-02-23T11:57:30;4.30;;;0.68;;
52918;SDS011;38793;52.690;6.812;2024-02-23T11:59:57;4.70;;;0.80;;
52918;SDS011;38793;52.690;6.812;2024-02-23T12:02:23;6.93;;;0.80;;
52918;SDS011;38793;52.690;6.812;2024-02-23T12:04:49;11.38;;;1.75;;
52918;SDS011;38793;52.690;6.812;2024-02-23T12:07:15;6.22;;;0.80;;
52918;SDS011;38793;52.690;6.812;2024-02-23T12:09:41;4.45;;;0.60;;
52918;SDS011;38793;52.690;6.812;2024-02-23T12:14:37;7.72;;;0.95;;
52918;SDS011;38793;52.690;6.812;2024-02-23T12:17:02;5.13;;;1.23;;
52918;SDS011;38793;52.690;6.812;2024-02-23T12:19:32;5.82;;;0.60;;
52918;SDS011;38793;52.690;6.812;2024-02-23T12:22:00;2.13;;;0.60;;
52918;SDS011;38793;52.690;6.812;2024-02-23T12:24:26;7.18;;;0.50;;
52918;SDS011;38793;52.690;6.812;2024-02-23T12:26:56;2.10;;;0.40;;
52918;SDS011;38793;52.690;6.812;2024-02-23T12:29:22;7.43;;;0.65;;
52918;SDS011;38793;52.690;6.812;2024-02-23T12:31:48;4.30;;;0.60;;
52918;SDS011;38793;52.690;6.812;2024-02-23T12:34:14;3.60;;;0.60;;
52918;SDS011;38793;52.690;6.812;2024-02-23T12:36:39;6.88;;;1.17;;
52918;SDS011;38793;52.690;6.812;2024-02-23T12:39:05;7.60;;;1.23;;
52918;SDS011;38793;52.690;6.812;2024-02-23T12:41:31;6.07;;;0.50;;
52918;SDS011;38793;52.690;6.812;2024-02-23T12:43:57;12.27;;;1.10;;
52918;SDS011;38793;52.690;6.812;2024-02-23T12:46:23;6.07;;;0.68;;
52918;SDS011;38793;52.690;6.812;2024-02-23T12:48:49;4.60;;;0.63;;
52918;SDS011;38793;52.690;6.812;2024-02-23T12:51:15;8.95;;;1.73;;
52918;SDS011;38793;52.690;6.812;2024-02-23T12:53:41;3.40;;;0.70;;
52918;SDS011;38793;52.690;6.812;2024-02-23T12:56:11;6.15;;;0.70;;
52918;SDS011;38793;52.690;6.812;2024-02-23T12:58:42;4.88;;;0.43;;
52918;SDS011;38793;52.690;6.812;2024-02-23T13:01:09;3.97;;;0.70;;
52918;SDS011;38793;52.690;6.812;2024-02-23T13:03:35;7.15;;;1.00;;
52918;SDS011;38793;52.690;6.812;2024-02-23T13:06:03;7.32;;;0.93;;
52918;SDS011;38793;52.690;6.812;2024-02-23T13:08:29;6.90;;;1.50;;
52918;SDS011;38793;52.690;6.812;2024-02-23T13:10:56;7.50;;;0.93;;
52918;SDS011;38793;52.690;6.812;2024-02-23T13:15:48;3.28;;;0.60;;
52918;SDS011;38793;52.690;6.812;2024-02-23T13:20:40;5.20;;;0.88;;
52918;SDS011;38793;52.690;6.812;2024-02-23T13:23:10;2.75;;;1.20;;
52918;SDS011;38793;52.690;6.812;2024-02-23T13:25:37;4.05;;;0.40;;
52918;SDS011;38793;52.690;6.812;2024-02-23T13:28:03;3.13;;;0.47;;
52918;SDS011;38793;52.690;6.812;2024-02-23T13:30:29;3.85;;;0.90;;
52918;SDS011;38793;52.690;6.812;2024-02-23T13:32:56;5.95;;;0.82;;
52918;SDS011;38793;52.690;6.812;2024-02-23T13:35:22;13.20;;;0.90;;
52918;SDS011;38793;52.690;6.812;2024-02-23T13:37:48;6.95;;;0.80;;
52918;SDS011;38793;52.690;6.812;2024-02-23T13:40:13;4.18;;;0.93;;
52918;SDS011;38793;52.690;6.812;2024-02-23T13:42:39;8.30;;;0.95;;
52918;SDS011;38793;52.690;6.812;2024-02-23T13:45:08;3.07;;;0.70;;
52918;SDS011;38793;52.690;6.812;2024-02-23T13:47:34;5.15;;;1.35;;
52918;SDS011;38793;52.690;6.812;2024-02-23T13:50:01;4.97;;;1.10;;
52918;SDS011;38793;52.690;6.812;2024-02-23T13:52:27;4.18;;;0.68;;
52918;SDS011;38793;52.690;6.812;2024-02-23T13:54:53;4.38;;;1.00;;
52918;SDS011;38793;52.690;6.812;2024-02-23T13:57:19;6.75;;;1.33;;
52918;SDS011;38793;52.690;6.812;2024-02-23T13:59:45;4.72;;;1.45;;
52918;SDS011;38793;52.690;6.812;2024-02-23T14:02:11;4.43;;;1.10;;
52918;SDS011;38793;52.690;6.812;2024-02-23T14:04:37;5.05;;;1.35;;
52918;SDS011;38793;52.690;6.812;2024-02-23T14:07:02;3.40;;;0.65;;
52918;SDS011;38793;52.690;6.812;2024-02-23T14:11:55;3.30;;;0.47;;
52918;SDS011;38793;52.690;6.812;2024-02-23T14:14:20;7.23;;;0.70;;
52918;SDS011;38793;52.690;6.812;2024-02-23T14:16:47;2.17;;;0.68;;
52918;SDS011;38793;52.690;6.812;2024-02-23T14:19:13;4.40;;;0.43;;
52918;SDS011;38793;52.690;6.812;2024-02-23T14:21:38;1.63;;;0.40;;
52918;SDS011;38793;52.690;6.812;2024-02-23T14:24:04;6.73;;;1.07;;
52918;SDS011;38793;52.690;6.812;2024-02-23T14:26:30;3.88;;;1.88;;
52918;SDS011;38793;52.690;6.812;2024-02-23T14:28:56;3.05;;;0.52;;
52918;SDS011;38793;52.690;6.812;2024-02-23T14:31:21;4.87;;;0.80;;
52918;SDS011;38793;52.690;6.812;2024-02-23T14:33:47;3.50;;;0.70;;
52918;SDS011;38793;52.690;6.812;2024-02-23T14:36:16;7.40;;;0.50;;
52918;SDS011;38793;52.690;6.812;2024-02-23T14:38:42;8.23;;;1.35;;
52918;SDS011;38793;52.690;6.812;2024-02-23T14:41:08;5.53;;;0.50;;
52918;SDS011;38793;52.690;6.812;2024-02-23T14:43:35;4.28;;;0.75;;
52918;SDS011;38793;52.690;6.812;2024-02-23T14:46:00;2.38;;;0.47;;
52918;SDS011;38793;52.690;6.812;2024-02-23T14:48:26;2.20;;;0.43;;
52918;SDS011;38793;52.690;6.812;2024-02-23T14:50:52;5.27;;;1.40;;
52918;SDS011;38793;52.690;6.812;2024-02-23T14:53:18;6.65;;;0.80;;
52918;SDS011;38793;52.690;6.812;2024-02-23T14:55:44;5.00;;;0.60;;
52918;SDS011;38793;52.690;6.812;2024-02-23T14:58:10;4.17;;;0.87;;
52918;SDS011;38793;52.690;6.812;2024-02-23T15:00:35;4.20;;;0.70;;
52918;SDS011;38793;52.690;6.812;2024-02-23T15:03:01;3.90;;;0.80;;
52918;SDS011;38793;52.690;6.812;2024-02-23T15:05:28;7.22;;;0.75;;
52918;SDS011;38793;52.690;6.812;2024-02-23T15:07:54;3.38;;;0.40;;
52918;SDS011;38793;52.690;6.812;2024-02-23T15:10:20;3.80;;;0.60;;
52918;SDS011;38793;52.690;6.812;2024-02-23T15:12:45;5.70;;;0.40;;